Time;durP1;ratioP1;P1;durP2;ratioP2;P2;SDS_P1;SDS_P2;PMS_P1;PMS_P2;Temp;Humidity;BMP_temperature;BMP_pressure;BME280_temperature;BME280_humidity;BME280_pressure;Samples;Min_cycle;Max_cycle;Signal;HPM_P1;HPM_P2
2023/10/20 00:02:27;;;;;;;5.80;4.10;;;;;;;;;;5032713;28;20463;-70
2023/10/20 00:04:54;;;;;;;6.27;4.37;;;;;;;;;;5030595;28;20485;-70
2023/10/20 00:07:21;;;;;;;7.53;4.07;;;;;;;;;;5042677;28;20473;-70
2023/10/20 00:09:49;;;;;;;4.97;3.40;;;;;;;;;;5036445;28;20469;-71
2023/10/20 00:12:17;;;;;;;6.13;4.23;;;;;;;;;;5044851;28;20438;-70
2023/10/20 00:14:44;;;;;;;9.33;5.70;;;;;;;;;;5028107;28;20502;-70
2023/10/20 00:17:11;;;;;;;6.30;4.23;;;;;;;;;;5031097;28;20474;-70
2023/10/20 00:19:40;;;;;;;5.90;4.50;;;;;;;;;;5031111;28;20462;-70
2023/10/20 00:22:07;;;;;;;7.00;4.30;;;;;;;;;;5037814;28;20835;-70
2023/10/20 00:24:34;;;;;;;5.90;4.20;;;;;;;;;;5030376;28;20471;-70
2023/10/20 00:27:01;;;;;;;5.97;4.60;;;;;;;;;;5033186;28;20525;-69
2023/10/20 00:29:28;;;;;;;4.90;3.83;;;;;;;;;;5030227;28;20984;-69
2023/10/20 00:31:55;;;;;;;7.63;4.73;;;;;;;;;;5038656;28;20431;-69
2023/10/20 00:34:22;;;;;;;8.03;3.80;;;;;;;;;;5042303;28;20478;-68
2023/10/20 00:36:50;;;;;;;6.27;4.83;;;;;;;;;;5043578;28;20446;-69
2023/10/20 00:39:17;;;;;;;4.83;3.67;;;;;;;;;;5035209;28;20442;-69
2023/10/20 00:41:45;;;;;;;7.03;4.23;;;;;;;;;;5037433;28;20486;-69
2023/10/20 00:44:12;;;;;;;7.00;3.53;;;;;;;;;;5036033;28;20553;-69
2023/10/20 00:46:40;;;;;;;7.00;4.60;;;;;;;;;;5048112;28;20450;-69
2023/10/20 00:49:09;;;;;;;5.67;3.60;;;;;;;;;;5035142;28;20637;-72
2023/10/20 00:51:36;;;;;;;6.70;4.83;;;;;;;;;;5038809;28;20468;-69
2023/10/20 00:54:05;;;;;;;8.27;4.10;;;;;;;;;;5036869;28;20902;-69
2023/10/20 00:56:33;;;;;;;4.60;3.30;;;;;;;;;;5042781;28;20873;-69
2023/10/20 00:59:00;;;;;;;4.50;3.37;;;;;;;;;;5048771;28;20705;-70
2023/10/20 01:01:28;;;;;;;8.63;4.13;;;;;;;;;;5043676;28;20473;-69
2023/10/20 01:03:55;;;;;;;9.37;5.07;;;;;;;;;;5036735;28;20467;-70
2023/10/20 13:16:18;;;;;;;1.70;0.60;;;;;;;;;;5262502;23;20499;-66
2023/10/20 13:18:45;;;;;;;1.50;0.50;;;;;;;;;;5015332;28;20493;-71
2023/10/20 13:21:12;;;;;;;1.40;0.40;;;;;;;;;;5014709;28;20999;-67
2023/10/20 13:23:39;;;;;;;1.40;0.40;;;;;;;;;;5014945;28;20444;-67
2023/10/20 13:26:06;;;;;;;1.50;0.50;;;;;;;;;;5011310;28;20480;-67
2023/10/20 13:28:34;;;;;;;2.60;0.50;;;;;;;;;;5015174;28;20535;-67
2023/10/20 13:31:03;;;;;;;1.40;0.40;;;;;;;;;;5014654;28;20761;-67
2023/10/20 13:33:33;;;;;;;1.50;0.50;;;;;;;;;;5014213;28;20510;-67
2023/10/20 13:36:04;;;;;;;1.50;0.50;;;;;;;;;;5014260;28;20642;-67
2023/10/20 13:38:31;;;;;;;1.60;0.60;;;;;;;;;;5014718;28;20467;-67
2023/10/20 13:40:59;;;;;;;1.60;0.60;;;;;;;;;;5013230;28;20463;-66
2023/10/20 13:43:26;;;;;;;1.40;0.40;;;;;;;;;;5013371;28;20486;-66
2023/10/20 13:45:53;;;;;;;1.40;0.43;;;;;;;;;;5014245;28;20460;-66
2023/10/20 13:48:20;;;;;;;1.50;0.47;;;;;;;;;;5013245;28;20440;-67
2023/10/20 13:50:49;;;;;;;1.90;0.60;;;;;;;;;;5014503;28;20444;-66
2023/10/20 13:53:16;;;;;;;1.40;0.50;;;;;;;;;;5012792;28;20460;-67
2023/10/20 13:55:43;;;;;;;1.60;0.50;;;;;;;;;;5003081;28;20480;-68
2023/10/20 13:58:11;;;;;;;1.40;0.47;;;;;;;;;;5013573;28;20452;-68
2023/10/20 14:00:39;;;;;;;1.67;0.60;;;;;;;;;;5014242;28;20475;-68
2023/10/20 14:03:07;;;;;;;1.40;0.40;;;;;;;;;;5013739;28;20483;-68
2023/10/20 14:05:34;;;;;;;1.60;0.50;;;;;;;;;;5013466;28;20491;-68
2023/10/20 14:08:03;;;;;;;1.47;0.50;;;;;;;;;;5013626;28;20863;-67
2023/10/20 14:10:31;;;;;;;1.60;0.40;;;;;;;;;;5012227;28;20455;-67
2023/10/20 14:12:58;;;;;;;1.50;0.50;;;;;;;;;;5014049;28;20474;-69
2023/10/20 14:15:26;;;;;;;1.77;0.70;;;;;;;;;;5012394;28;20835;-68
2023/10/20 14:17:53;;;;;;;1.37;0.40;;;;;;;;;;5013149;28;20431;-67
2023/10/20 14:20:20;;;;;;;2.00;0.70;;;;;;;;;;5012824;28;20834;-67
2023/10/20 14:22:47;;;;;;;1.73;0.70;;;;;;;;;;5012681;28;20476;-68
2023/10/20 14:25:17;;;;;;;2.63;0.60;;;;;;;;;;5012536;28;20555;-69
2023/10/20 14:27:44;;;;;;;1.57;0.50;;;;;;;;;;5012968;28;20517;-68
2023/10/20 14:30:11;;;;;;;2.10;0.60;;;;;;;;;;5008652;28;20894;-68
2023/10/20 14:32:38;;;;;;;1.50;0.50;;;;;;;;;;5006436;28;20440;-69
2023/10/20 14:35:06;;;;;;;1.60;0.60;;;;;;;;;;5013107;28;20467;-69
2023/10/20 14:37:33;;;;;;;1.90;0.83;;;;;;;;;;5012374;28;20460;-68
2023/10/20 14:40:00;;;;;;;1.40;0.40;;;;;;;;;;5001228;28;20498;-69
2023/10/20 14:42:29;;;;;;;1.50;0.50;;;;;;;;;;4999105;28;20480;-68
2023/10/20 14:44:56;;;;;;;1.50;0.50;;;;;;;;;;5012830;28;20448;-68
2023/10/20 14:47:23;;;;;;;1.40;0.40;;;;;;;;;;5011476;28;20464;-69
2023/10/20 14:49:50;;;;;;;1.40;0.47;;;;;;;;;;5013362;28;20880;-68
2023/10/20 14:52:17;;;;;;;1.60;0.40;;;;;;;;;;5013016;28;20447;-67
2023/10/20 14:54:44;;;;;;;1.80;0.60;;;;;;;;;;5012927;28;20445;-70
2023/10/20 14:57:12;;;;;;;2.37;0.70;;;;;;;;;;5011894;28;20470;-68
2023/10/20 14:59:40;;;;;;;2.57;0.93;;;;;;;;;;5011544;28;20460;-67
2023/10/20 15:02:07;;;;;;;1.70;0.60;;;;;;;;;;5011803;28;21197;-68
2023/10/20 15:04:34;;;;;;;1.70;0.57;;;;;;;;;;5013028;28;20484;-68
2023/10/20 15:07:01;;;;;;;1.50;0.50;;;;;;;;;;5011642;28;20495;-68
2023/10/20 15:09:28;;;;;;;1.60;0.50;;;;;;;;;;5012829;28;20972;-68
2023/10/20 15:11:56;;;;;;;1.60;0.60;;;;;;;;;;5011783;28;20953;-68
2023/10/20 15:14:23;;;;;;;2.17;0.53;;;;;;;;;;5011334;28;20971;-69
2023/10/20 15:16:52;;;;;;;1.50;0.60;;;;;;;;;;5012264;28;20476;-68
2023/10/20 15:19:19;;;;;;;3.10;0.80;;;;;;;;;;5012202;28;20452;-68
2023/10/20 15:21:48;;;;;;;2.30;0.70;;;;;;;;;;5010956;28;20467;-69
2023/10/20 15:24:15;;;;;;;1.50;0.50;;;;;;;;;;5013281;28;20447;-68
2023/10/20 15:26:45;;;;;;;2.47;0.60;;;;;;;;;;5011075;28;20566;-68
2023/10/20 15:29:12;;;;;;;1.80;0.70;;;;;;;;;;5000674;28;20887;-67
2023/10/20 15:31:39;;;;;;;1.70;0.70;;;;;;;;;;5010306;28;20538;-67
2023/10/20 15:34:07;;;;;;;2.93;1.10;;;;;;;;;;5012557;28;20639;-68
2023/10/20 15:36:46;;;;;;;1.90;0.67;;;;;;;;;;5009209;28;20491;-68
2023/10/20 15:39:13;;;;;;;2.37;0.97;;;;;;;;;;5002197;28;20948;-68
2023/10/20 15:41:40;;;;;;;2.00;0.90;;;;;;;;;;5011604;28;20448;-68
2023/10/20 15:44:08;;;;;;;2.47;1.00;;;;;;;;;;5016155;28;20495;-68
2023/10/20 15:46:35;;;;;;;1.90;0.80;;;;;;;;;;5013784;28;20503;-68
2023/10/20 15:49:03;;;;;;;3.80;1.20;;;;;;;;;;5003960;28;20448;-69
2023/10/20 15:51:32;;;;;;;2.03;0.97;;;;;;;;;;5011588;28;20517;-67
2023/10/20 15:53:59;;;;;;;1.97;0.70;;;;;;;;;;5011855;28;20803;-68
2023/10/20 15:56:27;;;;;;;2.33;0.93;;;;;;;;;;5010559;28;20480;-68
2023/10/20 15:58:54;;;;;;;2.17;0.70;;;;;;;;;;5011216;28;20475;-69
2023/10/20 16:01:22;;;;;;;2.10;0.90;;;;;;;;;;5011814;28;20571;-68
2023/10/20 16:03:49;;;;;;;2.27;1.10;;;;;;;;;;5012117;28;20969;-67
2023/10/20 16:06:16;;;;;;;2.30;0.80;;;;;;;;;;5011854;28;20534;-67
2023/10/20 16:08:45;;;;;;;2.53;0.87;;;;;;;;;;5010842;28;20567;-67
2023/10/20 16:11:12;;;;;;;4.57;0.90;;;;;;;;;;5005966;28;20459;-67
2023/10/20 16:13:39;;;;;;;2.10;0.97;;;;;;;;;;5010140;28;20459;-68
2023/10/20 16:16:06;;;;;;;2.33;1.10;;;;;;;;;;5011122;28;20475;-68
2023/10/20 16:18:33;;;;;;;2.30;1.10;;;;;;;;;;5010786;28;20456;-67
2023/10/20 16:21:00;;;;;;;2.20;1.10;;;;;;;;;;5011783;28;20490;-67
2023/10/20 16:23:27;;;;;;;4.00;1.10;;;;;;;;;;5011422;28;20491;-68
2023/10/20 16:25:56;;;;;;;2.93;1.07;;;;;;;;;;5011738;28;20471;-67
2023/10/20 16:28:23;;;;;;;1.83;0.67;;;;;;;;;;5009546;28;20540;-67
2023/10/20 16:30:50;;;;;;;2.10;0.80;;;;;;;;;;5011118;28;20464;-67
2023/10/20 16:33:20;;;;;;;2.03;0.73;;;;;;;;;;5010743;28;20439;-72
2023/10/20 16:35:47;;;;;;;2.70;1.00;;;;;;;;;;5011139;28;20464;-71
2023/10/20 16:38:14;;;;;;;1.80;0.87;;;;;;;;;;5010114;28;20551;-71
2023/10/20 16:40:41;;;;;;;2.00;0.80;;;;;;;;;;5012119;28;20444;-71
2023/10/20 16:43:10;;;;;;;2.33;0.83;;;;;;;;;;5010024;28;20579;-71
2023/10/20 16:45:37;;;;;;;3.00;1.10;;;;;;;;;;5000766;28;20464;-71
2023/10/20 16:48:06;;;;;;;2.70;0.77;;;;;;;;;;4994656;28;20440;-71
2023/10/20 16:50:33;;;;;;;2.50;1.10;;;;;;;;;;5010387;28;20468;-74
2023/10/20 16:53:00;;;;;;;2.30;0.90;;;;;;;;;;5010256;28;20538;-73
2023/10/20 16:55:28;;;;;;;4.13;1.40;;;;;;;;;;5011681;28;20486;-72
2023/10/20 16:57:55;;;;;;;2.10;1.10;;;;;;;;;;5011192;28;20444;-70
2023/10/20 17:00:24;;;;;;;2.10;1.00;;;;;;;;;;5011786;28;20455;-70
2023/10/20 17:02:51;;;;;;;1.90;0.70;;;;;;;;;;5010527;28;20472;-70
2023/10/20 17:05:18;;;;;;;5.63;1.47;;;;;;;;;;5011444;28;20469;-71
2023/10/20 17:07:45;;;;;;;3.20;1.13;;;;;;;;;;5011460;28;20506;-71
2023/10/20 17:10:12;;;;;;;2.80;1.20;;;;;;;;;;5010092;28;20448;-71
2023/10/20 17:12:39;;;;;;;2.00;1.07;;;;;;;;;;5010890;28;20844;-71
2023/10/20 17:15:07;;;;;;;2.20;1.20;;;;;;;;;;5010181;28;20484;-72
2023/10/20 17:17:35;;;;;;;3.73;1.23;;;;;;;;;;5012066;28;20490;-70
2023/10/20 17:20:03;;;;;;;2.53;1.30;;;;;;;;;;5009036;28;20460;-71
2023/10/20 17:22:30;;;;;;;2.57;0.90;;;;;;;;;;5011526;28;20451;-71
2023/10/20 17:24:57;;;;;;;3.90;1.80;;;;;;;;;;5015544;28;20479;-71
2023/10/20 17:27:24;;;;;;;3.07;1.80;;;;;;;;;;5014782;28;20450;-71
2023/10/20 17:29:53;;;;;;;4.03;2.00;;;;;;;;;;5013791;28;21008;-70
2023/10/20 17:32:21;;;;;;;2.57;1.47;;;;;;;;;;5002475;28;20448;-70
2023/10/20 17:34:50;;;;;;;2.90;1.63;;;;;;;;;;5014756;28;20439;-70
2023/10/20 17:37:17;;;;;;;3.90;1.70;;;;;;;;;;5013958;28;20451;-72
2023/10/20 17:39:44;;;;;;;2.20;1.17;;;;;;;;;;5014803;28;20467;-73
2023/10/20 17:42:11;;;;;;;2.40;1.00;;;;;;;;;;5015566;28;20439;-72
2023/10/20 17:44:38;;;;;;;3.50;1.47;;;;;;;;;;5011701;28;20475;-72
2023/10/20 17:47:05;;;;;;;3.10;1.53;;;;;;;;;;5014242;28;20455;-72
2023/10/20 17:49:32;;;;;;;3.20;1.20;;;;;;;;;;5014236;28;20451;-72
2023/10/20 17:52:01;;;;;;;3.47;1.10;;;;;;;;;;5013527;28;20840;-73
2023/10/20 17:54:28;;;;;;;2.87;1.37;;;;;;;;;;5015263;28;20444;-72
2023/10/20 17:56:55;;;;;;;3.70;1.70;;;;;;;;;;5012661;28;20476;-72
2023/10/20 17:59:22;;;;;;;2.97;1.70;;;;;;;;;;5013653;28;20889;-71
2023/10/20 18:01:49;;;;;;;4.80;1.30;;;;;;;;;;5014917;28;20455;-72
2023/10/20 18:04:16;;;;;;;3.83;1.63;;;;;;;;;;5014827;28;20488;-72
2023/10/20 18:06:47;;;;;;;2.47;1.10;;;;;;;;;;5013912;28;20523;-72
2023/10/20 18:09:16;;;;;;;1.90;0.90;;;;;;;;;;5013013;28;20462;-71
2023/10/20 18:11:43;;;;;;;4.80;1.37;;;;;;;;;;5014703;28;20479;-72
2023/10/20 18:14:11;;;;;;;3.80;1.80;;;;;;;;;;5013220;28;20460;-71
2023/10/20 18:16:38;;;;;;;3.53;1.43;;;;;;;;;;5014388;28;20478;-70
2023/10/20 18:19:06;;;;;;;3.80;2.70;;;;;;;;;;5013849;28;20464;-72
2023/10/20 18:21:35;;;;;;;3.17;1.40;;;;;;;;;;4998848;28;20445;-71
2023/10/20 18:24:07;;;;;;;3.20;1.70;;;;;;;;;;5002868;28;20907;-72
2023/10/20 18:26:35;;;;;;;1.90;1.00;;;;;;;;;;5013511;28;20492;-72
2023/10/20 18:29:03;;;;;;;2.53;1.40;;;;;;;;;;5013333;28;20953;-73
2023/10/20 18:31:30;;;;;;;3.90;1.33;;;;;;;;;;5014164;28;20444;-71
2023/10/20 18:33:58;;;;;;;3.60;1.77;;;;;;;;;;5000447;28;20443;-72
2023/10/20 18:36:25;;;;;;;2.87;1.20;;;;;;;;;;5014149;28;20468;-73
2023/10/20 18:38:52;;;;;;;2.83;1.47;;;;;;;;;;5014120;28;20440;-71
2023/10/20 18:41:20;;;;;;;4.20;1.70;;;;;;;;;;5013089;28;20475;-72
2023/10/20 18:43:49;;;;;;;6.40;1.90;;;;;;;;;;5012372;28;20488;-73
2023/10/20 18:46:16;;;;;;;2.73;1.50;;;;;;;;;;5012367;28;20488;-72
2023/10/20 18:48:43;;;;;;;2.30;1.33;;;;;;;;;;5013996;28;20455;-71
2023/10/20 18:51:11;;;;;;;2.50;1.43;;;;;;;;;;5016299;28;20459;-72
2023/10/20 18:53:39;;;;;;;3.50;1.80;;;;;;;;;;5014718;28;20840;-71
2023/10/20 18:56:07;;;;;;;4.23;2.00;;;;;;;;;;5012744;28;21089;-71
2023/10/20 18:58:34;;;;;;;3.47;1.50;;;;;;;;;;5012366;28;20542;-72
2023/10/20 19:01:02;;;;;;;4.60;1.80;;;;;;;;;;5009463;28;20470;-75
2023/10/20 19:03:31;;;;;;;4.23;2.17;;;;;;;;;;5012710;28;20534;-71
2023/10/20 19:05:58;;;;;;;3.83;2.23;;;;;;;;;;5013262;28;20468;-71
2023/10/20 19:08:25;;;;;;;2.97;1.80;;;;;;;;;;5013534;28;20456;-72
2023/10/20 19:10:53;;;;;;;2.77;1.30;;;;;;;;;;5006554;28;20591;-71
2023/10/20 19:13:20;;;;;;;4.30;1.67;;;;;;;;;;5012263;28;20491;-71
2023/10/20 19:15:47;;;;;;;3.40;1.37;;;;;;;;;;5010776;28;20492;-73
2023/10/20 19:18:15;;;;;;;4.03;1.93;;;;;;;;;;5012614;28;20447;-72
2023/10/20 19:20:43;;;;;;;3.00;1.60;;;;;;;;;;5012534;28;20440;-71
2023/10/20 19:23:10;;;;;;;4.67;1.63;;;;;;;;;;5011952;28;20514;-72
2023/10/20 19:25:38;;;;;;;2.50;1.10;;;;;;;;;;5013077;28;20953;-71
2023/10/20 19:28:06;;;;;;;2.60;0.93;;;;;;;;;;5012694;28;20631;-71
2023/10/20 19:30:36;;;;;;;5.20;2.00;;;;;;;;;;5009389;28;20551;-71
2023/10/20 19:33:03;;;;;;;2.50;1.13;;;;;;;;;;5011362;28;20451;-72
2023/10/20 19:35:33;;;;;;;2.30;1.30;;;;;;;;;;5011903;28;20460;-71
2023/10/20 19:38:00;;;;;;;12.20;2.13;;;;;;;;;;5011741;28;20436;-72
2023/10/20 19:40:27;;;;;;;2.63;1.40;;;;;;;;;;5011673;28;20463;-71
2023/10/20 19:42:55;;;;;;;2.97;1.47;;;;;;;;;;5012510;28;20462;-71
2023/10/20 19:45:22;;;;;;;5.40;1.40;;;;;;;;;;5007227;28;20531;-71
2023/10/20 19:47:49;;;;;;;3.37;1.47;;;;;;;;;;5012249;28;20455;-71
2023/10/20 19:50:16;;;;;;;2.40;1.00;;;;;;;;;;5011053;28;20443;-71
2023/10/20 19:52:45;;;;;;;4.37;2.40;;;;;;;;;;5011029;28;20459;-72
2023/10/20 19:55:12;;;;;;;2.20;1.17;;;;;;;;;;5000494;28;20805;-72
2023/10/20 19:57:39;;;;;;;2.20;0.93;;;;;;;;;;5012560;28;20440;-71
2023/10/20 20:00:10;;;;;;;3.57;1.57;;;;;;;;;;5012175;28;20478;-71
2023/10/20 20:02:37;;;;;;;1.90;1.10;;;;;;;;;;5010706;28;20547;-71
2023/10/20 20:05:05;;;;;;;2.23;1.00;;;;;;;;;;5012530;28;20533;-71
2023/10/20 20:07:32;;;;;;;3.07;1.20;;;;;;;;;;5011813;28;20824;-71
2023/10/20 20:10:01;;;;;;;2.30;1.10;;;;;;;;;;5010938;28;20455;-71
2023/10/20 20:12:28;;;;;;;3.60;1.53;;;;;;;;;;5009484;28;20554;-72
2023/10/20 20:14:55;;;;;;;3.60;1.50;;;;;;;;;;5011021;28;20455;-72
2023/10/20 20:17:24;;;;;;;3.33;1.77;;;;;;;;;;5011033;28;20491;-71
2023/10/20 20:19:51;;;;;;;9.23;1.20;;;;;;;;;;5011516;28;20452;-72
2023/10/20 20:22:19;;;;;;;2.30;1.23;;;;;;;;;;5008934;28;20491;-71
2023/10/20 20:24:46;;;;;;;3.80;1.60;;;;;;;;;;5010618;28;20575;-71
2023/10/20 20:27:15;;;;;;;2.20;1.20;;;;;;;;;;5011930;28;20456;-72
2023/10/20 20:29:42;;;;;;;2.30;1.47;;;;;;;;;;5011207;28;20531;-70
2023/10/20 20:32:09;;;;;;;2.83;1.47;;;;;;;;;;5005860;28;20996;-70
2023/10/20 20:34:36;;;;;;;3.70;1.30;;;;;;;;;;5011275;28;20440;-71
2023/10/20 20:37:03;;;;;;;2.30;1.30;;;;;;;;;;5012396;28;20518;-71
2023/10/20 20:39:31;;;;;;;2.73;1.20;;;;;;;;;;5011884;28;20476;-70
2023/10/20 20:41:58;;;;;;;3.57;1.77;;;;;;;;;;5010882;28;20475;-71
2023/10/20 20:44:28;;;;;;;2.17;1.30;;;;;;;;;;5005157;28;20484;-72
2023/10/20 20:46:55;;;;;;;2.87;1.43;;;;;;;;;;5008084;28;20483;-70
2023/10/20 20:49:23;;;;;;;3.10;1.50;;;;;;;;;;5010923;28;20448;-71
2023/10/20 20:51:50;;;;;;;3.20;1.23;;;;;;;;;;5009569;28;20444;-70
2023/10/20 20:54:17;;;;;;;3.07;1.50;;;;;;;;;;5010597;28;20494;-72
2023/10/20 20:56:44;;;;;;;3.00;1.70;;;;;;;;;;5004413;28;20468;-73
2023/10/20 20:59:11;;;;;;;2.70;1.17;;;;;;;;;;5008193;28;20440;-71
2023/10/20 21:01:40;;;;;;;1.80;0.93;;;;;;;;;;5014115;28;20479;-72
2023/10/20 21:04:07;;;;;;;2.30;1.20;;;;;;;;;;5015053;28;20479;-72
2023/10/20 21:06:36;;;;;;;2.50;1.37;;;;;;;;;;5014504;28;20502;-71
2023/10/20 21:09:04;;;;;;;2.07;1.10;;;;;;;;;;5014601;28;20479;-70
2023/10/20 21:11:31;;;;;;;3.10;1.40;;;;;;;;;;5014919;28;20670;-70
2023/10/20 21:13:58;;;;;;;5.03;1.40;;;;;;;;;;5015390;28;20942;-71
2023/10/20 21:16:25;;;;;;;3.90;1.23;;;;;;;;;;5013945;28;20480;-71
2023/10/20 21:18:56;;;;;;;2.40;1.17;;;;;;;;;;5015298;28;20445;-70
2023/10/20 21:21:24;;;;;;;2.80;1.20;;;;;;;;;;5014814;28;20462;-70
2023/10/20 21:23:51;;;;;;;2.73;1.40;;;;;;;;;;5015237;28;20555;-70
2023/10/20 21:26:18;;;;;;;2.07;1.00;;;;;;;;;;5012632;28;20488;-71
2023/10/20 21:28:45;;;;;;;1.90;0.90;;;;;;;;;;5008728;28;20492;-72
2023/10/20 21:31:14;;;;;;;2.00;1.13;;;;;;;;;;5005393;28;20489;-71
2023/10/20 21:33:41;;;;;;;1.97;0.93;;;;;;;;;;5014582;28;20573;-70
2023/10/20 21:36:14;;;;;;;2.20;1.03;;;;;;;;;;5013811;28;20464;-71
2023/10/20 21:38:41;;;;;;;7.57;1.57;;;;;;;;;;5014559;28;20447;-71
2023/10/20 21:41:08;;;;;;;2.80;0.97;;;;;;;;;;5014988;28;20816;-71
2023/10/20 21:43:36;;;;;;;2.10;1.10;;;;;;;;;;5014188;28;20444;-71
2023/10/20 21:46:03;;;;;;;4.73;1.30;;;;;;;;;;5012666;28;20907;-71
2023/10/20 21:48:30;;;;;;;2.07;1.13;;;;;;;;;;5008717;28;20456;-71
2023/10/20 21:50:58;;;;;;;2.53;0.90;;;;;;;;;;5014022;28;20471;-70
2023/10/20 21:53:27;;;;;;;2.10;1.10;;;;;;;;;;5014358;28;20953;-71
2023/10/20 21:56:01;;;;;;;2.97;0.97;;;;;;;;;;5014688;28;20490;-69
2023/10/20 21:58:28;;;;;;;4.03;0.80;;;;;;;;;;5019683;28;20464;-71
2023/10/20 22:00:55;;;;;;;3.00;1.03;;;;;;;;;;5017461;28;20490;-72
2023/10/20 22:03:23;;;;;;;2.80;0.83;;;;;;;;;;5012807;28;20483;-71
2023/10/20 22:05:52;;;;;;;2.67;1.07;;;;;;;;;;5013934;28;20498;-71
2023/10/20 22:08:19;;;;;;;4.50;1.30;;;;;;;;;;5011648;28;20452;-71
2023/10/20 22:10:47;;;;;;;1.90;1.00;;;;;;;;;;5013441;28;20440;-72
2023/10/20 22:13:14;;;;;;;1.67;0.80;;;;;;;;;;5013947;28;20448;-73
2023/10/20 22:15:41;;;;;;;1.77;0.77;;;;;;;;;;5013000;28;20503;-71
2023/10/20 22:18:10;;;;;;;1.90;0.80;;;;;;;;;;5013073;28;20471;-72
2023/10/20 22:20:37;;;;;;;1.90;0.80;;;;;;;;;;5013077;28;20440;-71
2023/10/20 22:23:05;;;;;;;2.00;0.87;;;;;;;;;;5011245;28;20459;-71
2023/10/20 22:25:32;;;;;;;2.20;0.87;;;;;;;;;;5011996;28;20502;-71
2023/10/20 22:28:00;;;;;;;1.77;0.73;;;;;;;;;;5013521;28;20448;-71
2023/10/20 22:30:27;;;;;;;2.10;0.80;;;;;;;;;;5009117;28;20472;-70
2023/10/20 22:32:54;;;;;;;1.90;1.00;;;;;;;;;;5011720;28;20475;-71
2023/10/20 22:35:23;;;;;;;4.30;1.00;;;;;;;;;;5001042;28;20457;-70
2023/10/20 22:37:50;;;;;;;3.40;0.80;;;;;;;;;;5005752;28;20452;-72
2023/10/20 22:40:17;;;;;;;2.00;0.90;;;;;;;;;;5013183;28;20440;-71
2023/10/20 22:42:44;;;;;;;2.13;0.80;;;;;;;;;;5011912;28;20467;-72
2023/10/20 22:45:15;;;;;;;3.40;1.07;;;;;;;;;;5013549;28;20888;-69
2023/10/20 22:47:42;;;;;;;1.90;0.70;;;;;;;;;;5012041;28;20511;-69
2023/10/20 22:50:09;;;;;;;1.80;0.70;;;;;;;;;;5012447;28;20456;-70
2023/10/20 22:52:36;;;;;;;2.33;0.80;;;;;;;;;;5006175;28;20448;-71
2023/10/20 22:55:03;;;;;;;2.00;0.80;;;;;;;;;;5011685;28;20475;-71
2023/10/20 22:57:31;;;;;;;1.97;0.90;;;;;;;;;;5010056;28;20467;-70
2023/10/20 22:59:58;;;;;;;1.80;0.77;;;;;;;;;;5012371;28;20474;-70
2023/10/20 23:02:27;;;;;;;4.43;0.83;;;;;;;;;;5007777;28;20459;-70
2023/10/20 23:04:54;;;;;;;1.60;0.67;;;;;;;;;;5012357;28;21186;-70
2023/10/20 23:07:21;;;;;;;2.30;1.10;;;;;;;;;;5011273;28;20459;-70
2023/10/20 23:09:49;;;;;;;1.87;0.80;;;;;;;;;;5002040;28;20448;-70
2023/10/20 23:12:16;;;;;;;1.70;0.60;;;;;;;;;;5010230;28;20456;-70
2023/10/20 23:14:43;;;;;;;1.67;0.60;;;;;;;;;;5011818;28;20579;-71
2023/10/20 23:17:10;;;;;;;1.77;0.70;;;;;;;;;;4998682;28;20475;-70
2023/10/20 23:19:39;;;;;;;1.80;0.90;;;;;;;;;;5011975;28;20937;-70
2023/10/20 23:22:06;;;;;;;2.00;0.70;;;;;;;;;;5011665;28;20471;-71
2023/10/20 23:24:33;;;;;;;2.20;1.00;;;;;;;;;;5003337;28;20481;-70
2023/10/20 23:27:00;;;;;;;2.10;0.80;;;;;;;;;;5007842;28;20464;-70
2023/10/20 23:29:28;;;;;;;1.90;0.90;;;;;;;;;;5012210;28;20858;-71
2023/10/20 23:31:55;;;;;;;1.90;0.70;;;;;;;;;;5007214;28;20879;-70
2023/10/20 23:34:22;;;;;;;1.80;0.70;;;;;;;;;;5005439;28;20475;-71
2023/10/20 23:36:50;;;;;;;1.50;0.50;;;;;;;;;;5007459;28;20476;-71
2023/10/20 23:39:17;;;;;;;2.20;1.13;;;;;;;;;;5006210;28;20927;-71
2023/10/20 23:41:44;;;;;;;1.80;0.80;;;;;;;;;;5011903;28;20476;-69
2023/10/20 23:44:12;;;;;;;2.60;1.00;;;;;;;;;;5011810;28;21330;-69
2023/10/20 23:46:39;;;;;;;2.17;0.80;;;;;;;;;;5011303;28;20499;-70
2023/10/20 23:49:06;;;;;;;3.03;1.03;;;;;;;;;;5002292;28;20514;-69
2023/10/20 23:51:33;;;;;;;1.70;0.83;;;;;;;;;;5011728;28;20852;-70
2023/10/20 23:54:01;;;;;;;1.90;0.80;;;;;;;;;;5010877;28;20447;-70
2023/10/20 23:56:29;;;;;;;2.60;1.30;;;;;;;;;;5011226;28;20534;-70
2023/10/20 23:58:56;;;;;;;1.90;0.70;;;;;;;;;;5011085;28;20440;-69
